Time;durP1;ratioP1;P1;durP2;ratioP2;P2;SDS_P1;SDS_P2;PMS_P1;PMS_P2;Temp;Humidity;BMP_temperature;BMP_pressure;BME280_temperature;BME280_humidity;BME280_pressure;Samples;Min_cycle;Max_cycle;Signal;HPM_P1;HPM_P2
2024/01/09 00:00:47;;;;;;;4.13;3.08;;;21.30;27.80;;;;;;4929300;29;20074;-63
2024/01/09 00:03:15;;;;;;;4.15;2.95;;;21.40;27.80;;;;;;4929405;29;20055;-63
2024/01/09 00:05:42;;;;;;;4.43;3.08;;;21.40;27.80;;;;;;4928516;29;20052;-63
2024/01/09 00:08:09;;;;;;;4.72;2.65;;;21.40;27.70;;;;;;4926289;29;20051;-63
2024/01/09 00:10:36;;;;;;;4.03;2.97;;;21.40;27.70;;;;;;4925959;29;20118;-62
2024/01/09 00:13:04;;;;;;;4.20;3.13;;;21.30;27.60;;;;;;4932043;29;20060;-63
2024/01/09 00:15:33;;;;;;;4.07;3.05;;;21.40;27.60;;;;;;4930561;29;20066;-63
2024/01/09 00:18:00;;;;;;;4.55;3.17;;;21.40;27.60;;;;;;4932821;29;20071;-63
2024/01/09 00:20:27;;;;;;;4.25;3.30;;;21.40;27.60;;;;;;4929409;29;20496;-62
2024/01/09 00:22:54;;;;;;;4.63;2.92;;;21.30;27.50;;;;;;4930736;29;20047;-63
2024/01/09 00:25:22;;;;;;;5.10;3.78;;;21.30;27.50;;;;;;4929565;29;20063;-63
2024/01/09 00:27:49;;;;;;;5.45;3.45;;;21.30;27.50;;;;;;4932361;29;20064;-63
2024/01/09 00:30:16;;;;;;;3.97;3.25;;;21.20;27.40;;;;;;4929571;29;20067;-63
2024/01/09 00:32:47;;;;;;;4.60;3.40;;;21.20;27.40;;;;;;4928947;29;20444;-63
2024/01/09 00:35:15;;;;;;;5.70;3.20;;;21.20;27.40;;;;;;4926150;29;20067;-63
2024/01/09 00:37:42;;;;;;;5.40;3.38;;;21.10;27.40;;;;;;4929447;29;20059;-63
2024/01/09 00:40:10;;;;;;;4.65;3.42;;;21.10;27.40;;;;;;4931475;29;20492;-63
2024/01/09 00:42:37;;;;;;;4.22;3.40;;;21.00;27.40;;;;;;4934061;29;20062;-62
2024/01/09 00:45:06;;;;;;;4.40;3.33;;;21.00;27.40;;;;;;4929749;29;20048;-62
2024/01/09 00:47:33;;;;;;;4.47;3.10;;;20.90;27.50;;;;;;4926747;29;20489;-62
2024/01/09 00:50:02;;;;;;;4.18;3.13;;;20.90;27.40;;;;;;4928609;29;20052;-62
2024/01/09 00:52:29;;;;;;;4.50;3.15;;;20.90;27.40;;;;;;4927359;29;20059;-63
2024/01/09 00:54:56;;;;;;;4.40;3.28;;;20.90;27.50;;;;;;4930328;29;20056;-62
2024/01/09 00:57:24;;;;;;;5.30;3.28;;;20.90;27.50;;;;;;4933729;29;20141;-62
2024/01/09 00:59:51;;;;;;;4.47;3.22;;;20.90;27.60;;;;;;4932568;29;20402;-62
2024/01/09 01:02:18;;;;;;;3.83;3.08;;;20.90;27.70;;;;;;4932778;29;20067;-62
2024/01/09 01:04:46;;;;;;;4.30;3.08;;;20.90;27.70;;;;;;4930433;29;20052;-63
2024/01/09 01:07:14;;;;;;;7.43;3.67;;;20.90;27.70;;;;;;4933297;29;20056;-62
2024/01/09 01:09:41;;;;;;;4.35;2.90;;;21.00;27.80;;;;;;4932241;29;20063;-62
2024/01/09 01:12:09;;;;;;;4.15;3.00;;;21.00;27.80;;;;;;4930775;29;20051;-63
2024/01/09 01:14:36;;;;;;;4.35;3.13;;;21.10;27.80;;;;;;4929050;29;20523;-62
2024/01/09 01:17:03;;;;;;;4.65;3.30;;;21.10;27.80;;;;;;4931653;29;20052;-62
2024/01/09 01:19:30;;;;;;;4.85;3.28;;;21.10;27.80;;;;;;4923720;29;20055;-63
2024/01/09 01:21:58;;;;;;;5.00;3.22;;;21.20;27.80;;;;;;4928927;29;20063;-63
2024/01/09 01:24:26;;;;;;;4.47;3.00;;;21.20;27.80;;;;;;4930867;29;20059;-62
2024/01/09 01:26:53;;;;;;;5.80;3.33;;;21.30;27.80;;;;;;4930823;29;20059;-62
2024/01/09 01:29:21;;;;;;;4.95;3.55;;;21.30;27.70;;;;;;4929074;29;20508;-62
2024/01/09 01:31:48;;;;;;;5.07;3.33;;;21.30;27.60;;;;;;4930710;29;20055;-62
2024/01/09 01:34:15;;;;;;;4.30;3.33;;;21.30;27.60;;;;;;4931447;29;20055;-63
2024/01/09 01:36:42;;;;;;;5.03;3.28;;;21.30;27.60;;;;;;4930444;29;20536;-62
2024/01/09 01:39:10;;;;;;;5.57;4.00;;;21.30;27.50;;;;;;4928659;29;20052;-62
2024/01/09 01:41:38;;;;;;;4.78;3.30;;;21.30;27.50;;;;;;4928222;29;20408;-62
2024/01/09 01:44:14;;;;;;;4.80;3.35;;;21.30;27.40;;;;;;4932492;29;20492;-63
2024/01/09 01:46:43;;;;;;;8.30;3.17;;;21.20;27.40;;;;;;4934712;29;20056;-63
2024/01/09 01:49:12;;;;;;;4.25;3.30;;;21.20;27.40;;;;;;4932332;29;20051;-62
2024/01/09 01:51:39;;;;;;;6.70;3.33;;;21.20;27.40;;;;;;4932807;29;20416;-62
2024/01/09 01:54:07;;;;;;;4.38;3.20;;;21.20;27.40;;;;;;4932957;29;20071;-63
2024/01/09 01:56:35;;;;;;;4.47;3.35;;;21.20;27.40;;;;;;4929698;29;20060;-63
2024/01/09 01:59:04;;;;;;;4.30;2.95;;;21.20;27.40;;;;;;4930791;29;20480;-63
2024/01/09 02:01:31;;;;;;;3.38;2.78;;;21.10;27.40;;;;;;4932768;29;20056;-63
2024/01/09 02:03:59;;;;;;;4.78;3.33;;;21.20;27.50;;;;;;4933435;29;20058;-63
2024/01/09 02:06:27;;;;;;;4.30;3.28;;;21.20;27.50;;;;;;4930232;29;20424;-62
2024/01/09 02:08:55;;;;;;;5.80;3.45;;;21.20;27.60;;;;;;4932058;29;20064;-62
2024/01/09 02:11:22;;;;;;;5.78;3.35;;;21.20;27.60;;;;;;4932519;29;20063;-62
2024/01/09 02:13:49;;;;;;;5.13;3.58;;;21.30;27.60;;;;;;4932518;29;20064;-64
2024/01/09 02:16:18;;;;;;;13.73;3.63;;;21.30;27.60;;;;;;4935243;29;20099;-62
2024/01/09 02:18:45;;;;;;;14.13;4.10;;;21.30;27.70;;;;;;4933448;29;20055;-65
2024/01/09 02:21:13;;;;;;;27.70;4.35;;;21.30;27.80;;;;;;4929348;29;20047;-61
2024/01/09 02:23:41;;;;;;;12.25;4.13;;;21.30;27.90;;;;;;4933129;29;20485;-63
2024/01/09 02:26:31;;;;;;;7.55;3.38;;;21.30;27.80;;;;;;4926710;29;20056;-62
2024/01/09 02:29:05;;;;;;;5.70;3.65;;;21.30;27.70;;;;;;4929646;29;20051;-62
2024/01/09 02:31:34;;;;;;;4.68;2.97;;;21.30;27.60;;;;;;4932358;29;20056;-63
2024/01/09 02:34:03;;;;;;;7.97;3.30;;;21.30;27.50;;;;;;4931150;29;20051;-62
2024/01/09 02:36:30;;;;;;;7.57;3.25;;;21.30;27.50;;;;;;4934117;29;20056;-63
2024/01/09 02:38:58;;;;;;;5.70;3.50;;;21.20;27.40;;;;;;4926693;29;20078;-62
2024/01/09 02:41:25;;;;;;;7.68;3.55;;;21.20;27.40;;;;;;4936008;29;20051;-63
2024/01/09 02:43:53;;;;;;;5.38;3.03;;;21.20;27.40;;;;;;4932047;29;20067;-62
2024/01/09 02:46:21;;;;;;;3.90;3.00;;;21.10;27.40;;;;;;4942110;29;20496;-63
2024/01/09 02:48:49;;;;;;;6.45;3.45;;;21.10;27.40;;;;;;4936114;29;20058;-63
2024/01/09 02:51:17;;;;;;;6.45;3.80;;;21.10;27.40;;;;;;4943466;29;20412;-63
2024/01/09 02:53:44;;;;;;;5.90;3.83;;;21.00;27.40;;;;;;4938787;29;20535;-63
2024/01/09 02:56:11;;;;;;;5.38;3.30;;;21.00;27.40;;;;;;4940917;29;20063;-63
2024/01/09 02:58:39;;;;;;;4.32;3.13;;;20.90;27.40;;;;;;4941499;29;20067;-63
2024/01/09 03:01:07;;;;;;;6.13;3.13;;;20.90;27.40;;;;;;4936802;29;20412;-63
2024/01/09 03:03:34;;;;;;;4.88;3.30;;;20.80;27.40;;;;;;4929574;29;20156;-64
2024/01/09 03:06:03;;;;;;;5.80;3.20;;;20.80;27.40;;;;;;4927513;29;20055;-62
2024/01/09 03:08:30;;;;;;;4.82;2.90;;;20.80;27.50;;;;;;4914338;29;20064;-65
2024/01/09 03:10:58;;;;;;;7.80;3.40;;;20.70;27.50;;;;;;4928574;29;20056;-63
2024/01/09 03:13:25;;;;;;;6.30;3.33;;;20.70;27.50;;;;;;4938604;29;20055;-63
2024/01/09 03:15:52;;;;;;;4.93;3.08;;;20.70;27.60;;;;;;4938021;29;20066;-63
2024/01/09 03:18:19;;;;;;;4.45;3.22;;;20.80;27.70;;;;;;4947712;29;20397;-63
2024/01/09 03:20:46;;;;;;;3.20;2.80;;;20.80;27.70;;;;;;4932760;29;20060;-63
2024/01/09 03:23:17;;;;;;;4.07;3.00;;;20.80;27.70;;;;;;4924867;29;20051;-62
2024/01/09 03:25:44;;;;;;;7.07;3.47;;;20.80;27.70;;;;;;4928294;29;20063;-61
2024/01/09 03:28:11;;;;;;;3.97;2.88;;;20.90;27.70;;;;;;4943028;29;20063;-62
2024/01/09 03:30:39;;;;;;;4.65;3.30;;;20.90;27.70;;;;;;4936227;29;20128;-63
2024/01/09 03:33:06;;;;;;;4.47;3.10;;;21.00;27.80;;;;;;4921540;29;20264;-64
2024/01/09 03:35:33;;;;;;;4.10;3.10;;;21.00;27.80;;;;;;4927203;29;20063;-64
2024/01/09 03:38:00;;;;;;;4.20;3.30;;;21.00;27.80;;;;;;4930767;29;20055;-65
2024/01/09 03:40:29;;;;;;;3.83;3.08;;;21.10;27.90;;;;;;4938081;29;20515;-63
2024/01/09 03:42:56;;;;;;;4.18;3.08;;;21.10;27.80;;;;;;4933270;29;20047;-65
2024/01/09 03:45:24;;;;;;;4.18;2.83;;;21.10;27.80;;;;;;4939224;29;20051;-63
2024/01/09 03:47:51;;;;;;;4.30;3.10;;;21.20;27.80;;;;;;4933512;29;20063;-63
2024/01/09 03:50:18;;;;;;;3.92;2.92;;;21.20;27.70;;;;;;4931586;29;20044;-64
2024/01/09 03:52:45;;;;;;;4.47;3.53;;;21.20;27.70;;;;;;4939623;29;20505;-63
2024/01/09 03:55:14;;;;;;;4.43;3.33;;;21.20;27.60;;;;;;4938363;29;20066;-63
2024/01/09 03:57:43;;;;;;;4.82;3.13;;;21.20;27.60;;;;;;4929822;29;20060;-63
2024/01/09 04:00:12;;;;;;;4.78;3.25;;;21.20;28.00;;;;;;4931737;29;20522;-63
2024/01/09 04:02:40;;;;;;;5.35;3.15;;;21.20;27.50;;;;;;4928096;29;20051;-64
2024/01/09 04:05:08;;;;;;;4.28;3.13;;;21.20;27.50;;;;;;4930056;29;20063;-64
2024/01/09 04:07:36;;;;;;;5.28;3.28;;;21.10;27.40;;;;;;4932881;29;20060;-64
2024/01/09 04:10:03;;;;;;;5.65;3.60;;;21.10;27.40;;;;;;4933229;29;20052;-64
2024/01/09 04:12:31;;;;;;;3.70;2.80;;;21.10;27.40;;;;;;4928743;29;20433;-64
2024/01/09 04:15:00;;;;;;;4.95;3.33;;;21.00;27.40;;;;;;4934766;29;20062;-64
2024/01/09 04:17:27;;;;;;;4.25;3.30;;;21.10;27.40;;;;;;4930965;29;20060;-65
2024/01/09 04:19:55;;;;;;;5.65;3.63;;;21.00;27.30;;;;;;4938992;29;20060;-64
2024/01/09 04:22:22;;;;;;;3.70;3.05;;;21.00;27.30;;;;;;4940023;29;20054;-64
2024/01/09 04:24:50;;;;;;;4.25;3.17;;;20.90;27.20;;;;;;4938931;29;20535;-65
2024/01/09 04:27:17;;;;;;;4.85;3.00;;;20.90;27.20;;;;;;4929520;29;20062;-64
2024/01/09 04:29:44;;;;;;;5.18;3.25;;;20.90;27.20;;;;;;4923989;29;20405;-63
2024/01/09 04:32:13;;;;;;;3.80;2.97;;;20.80;27.20;;;;;;4930043;29;20056;-63
2024/01/09 04:34:40;;;;;;;3.65;2.78;;;20.80;27.20;;;;;;4928061;29;20067;-64
2024/01/09 04:37:08;;;;;;;4.13;3.20;;;20.70;27.20;;;;;;4929716;29;20059;-63
2024/01/09 04:39:35;;;;;;;3.72;3.05;;;20.70;27.30;;;;;;4931209;29;20051;-63
2024/01/09 04:42:02;;;;;;;4.70;3.15;;;20.70;27.40;;;;;;4930232;29;20433;-63
2024/01/09 04:44:30;;;;;;;4.10;3.15;;;20.70;27.40;;;;;;4928916;29;20056;-63
2024/01/09 04:46:57;;;;;;;3.88;2.72;;;20.70;27.50;;;;;;4934846;29;20060;-63
2024/01/09 04:49:26;;;;;;;3.65;2.80;;;20.70;27.60;;;;;;4931854;29;20063;-65
2024/01/09 04:51:53;;;;;;;4.13;3.20;;;20.70;27.60;;;;;;4926304;29;20058;-63
2024/01/09 04:54:21;;;;;;;3.15;2.60;;;20.80;27.70;;;;;;4928341;29;20064;-63
2024/01/09 04:56:48;;;;;;;5.22;3.30;;;20.80;27.60;;;;;;4924682;29;20056;-62
2024/01/09 04:59:15;;;;;;;3.85;2.75;;;20.90;27.70;;;;;;4931698;29;20378;-64
2024/01/09 05:01:43;;;;;;;4.15;3.00;;;20.90;27.70;;;;;;4929944;29;20060;-63
2024/01/09 05:04:10;;;;;;;3.38;2.78;;;20.90;27.70;;;;;;4928683;29;20048;-64
2024/01/09 05:06:39;;;;;;;4.63;3.10;;;21.00;27.70;;;;;;4923882;29;20056;-62
2024/01/09 05:09:06;;;;;;;3.58;2.90;;;21.00;27.70;;;;;;4926495;29;20111;-62
2024/01/09 05:11:34;;;;;;;3.88;2.92;;;21.10;27.70;;;;;;4935995;29;20416;-61
2024/01/09 05:14:01;;;;;;;5.93;3.15;;;21.10;27.70;;;;;;4934007;29;20051;-60
2024/01/09 05:16:28;;;;;;;7.65;2.92;;;21.10;27.70;;;;;;4929743;29;20523;-62
2024/01/09 05:18:56;;;;;;;8.07;2.70;;;21.20;27.70;;;;;;4925251;29;20056;-62
2024/01/09 05:21:23;;;;;;;15.98;3.40;;;21.20;27.70;;;;;;4927906;29;20055;-63
2024/01/09 05:23:52;;;;;;;7.45;3.35;;;21.20;27.70;;;;;;4919585;29;20048;-63
2024/01/09 05:26:19;;;;;;;9.30;2.60;;;21.30;27.70;;;;;;4923363;29;20508;-61
2024/01/09 05:28:46;;;;;;;12.50;2.97;;;21.30;27.60;;;;;;4938155;29;20063;-60
2024/01/09 05:31:13;;;;;;;6.00;2.85;;;21.30;27.70;;;;;;4943485;29;20361;-60
2024/01/09 05:33:40;;;;;;;18.55;7.45;;;21.30;27.70;;;;;;4932190;29;20500;-61
2024/01/09 05:36:08;;;;;;;48.38;29.38;;;21.30;27.40;;;;;;4927629;29;20047;-61
2024/01/09 05:38:36;;;;;;;60.50;27.73;;;21.30;27.00;;;;;;4938246;28;20048;-60
2024/01/09 05:41:04;;;;;;;32.90;19.83;;;21.30;26.90;;;;;;4947137;29;20052;-62
2024/01/09 05:43:32;;;;;;;24.50;14.85;;;21.30;26.90;;;;;;4940557;29;20059;-63
2024/01/09 05:45:59;;;;;;;20.45;12.38;;;21.30;27.00;;;;;;4931630;29;20058;-61
2024/01/09 05:48:26;;;;;;;29.35;11.07;;;21.30;27.00;;;;;;4937874;29;20518;-65
2024/01/09 05:50:53;;;;;;;15.65;10.18;;;21.20;27.10;;;;;;4931849;29;20052;-65
2024/01/09 05:53:21;;;;;;;14.88;9.35;;;21.20;27.10;;;;;;4930641;29;20517;-62
2024/01/09 05:55:48;;;;;;;14.75;8.77;;;21.20;27.10;;;;;;4934654;29;20051;-62
2024/01/09 05:58:16;;;;;;;14.93;7.90;;;21.20;27.20;;;;;;4928501;29;20405;-63
2024/01/09 06:00:44;;;;;;;20.80;8.00;;;21.10;27.20;;;;;;4933238;29;20059;-61
2024/01/09 06:03:11;;;;;;;16.38;7.35;;;21.10;27.30;;;;;;4942861;29;20047;-62
2024/01/09 06:05:38;;;;;;;16.13;7.50;;;21.10;27.20;;;;;;4939603;29;20063;-61
2024/01/09 06:08:06;;;;;;;58.78;31.75;;;21.00;27.20;;;;;;4940070;29;20508;-60
2024/01/09 06:10:34;;;;;;;90.05;51.15;;;21.00;27.00;;;;;;4937033;29;20063;-60
2024/01/09 06:13:01;;;;;;;64.60;37.72;;;20.90;26.80;;;;;;4943685;29;20059;-64
2024/01/09 06:15:29;;;;;;;44.35;26.30;;;20.90;26.90;;;;;;4939403;29;20059;-62
2024/01/09 06:17:57;;;;;;;31.40;20.30;;;20.90;27.00;;;;;;4945862;29;20056;-62
2024/01/09 06:20:24;;;;;;;28.10;17.08;;;20.90;27.10;;;;;;4920682;29;20405;-62
2024/01/09 06:22:52;;;;;;;25.33;16.17;;;20.90;27.10;;;;;;4920600;29;20276;-62
2024/01/09 06:25:19;;;;;;;23.55;14.70;;;20.90;27.20;;;;;;4924291;29;20064;-62
2024/01/09 06:27:46;;;;;;;22.17;12.57;;;20.90;27.30;;;;;;4934218;29;20066;-61
2024/01/09 06:30:14;;;;;;;19.00;11.82;;;20.90;27.40;;;;;;4935951;29;20519;-61
2024/01/09 06:32:43;;;;;;;15.80;10.50;;;20.90;27.40;;;;;;4938598;29;20060;-60
2024/01/09 06:35:10;;;;;;;16.35;9.90;;;21.00;27.40;;;;;;4936771;29;20496;-61
2024/01/09 06:37:38;;;;;;;14.75;9.80;;;21.00;27.40;;;;;;4936837;29;20078;-61
2024/01/09 06:40:06;;;;;;;30.92;18.67;;;21.00;27.30;;;;;;4926046;29;20067;-61
2024/01/09 06:42:33;;;;;;;79.10;45.72;;;21.00;27.10;;;;;;4934671;29;20405;-62
2024/01/09 06:45:01;;;;;;;68.95;41.30;;;21.00;27.00;;;;;;4937448;29;20054;-61
2024/01/09 06:47:28;;;;;;;44.90;28.75;;;21.10;27.00;;;;;;4940641;29;20417;-62
2024/01/09 06:49:57;;;;;;;40.40;21.65;;;21.10;27.20;;;;;;4936054;28;20055;-62
2024/01/09 06:52:24;;;;;;;29.70;18.80;;;21.10;27.30;;;;;;4921026;29;20059;-61
2024/01/09 06:54:51;;;;;;;27.63;17.42;;;21.20;27.30;;;;;;4935511;29;20070;-61
2024/01/09 06:57:19;;;;;;;26.45;14.77;;;21.20;27.20;;;;;;4925669;29;20051;-61
2024/01/09 06:59:46;;;;;;;20.27;13.30;;;21.20;27.20;;;;;;4932258;29;20056;-61
2024/01/09 07:02:13;;;;;;;19.55;13.30;;;21.20;27.20;;;;;;4934762;29;20062;-61
2024/01/09 07:04:40;;;;;;;21.08;11.60;;;21.30;27.20;;;;;;4941359;29;20052;-61
2024/01/09 07:07:09;;;;;;;19.23;11.45;;;21.30;27.20;;;;;;4932066;29;20386;-62
2024/01/09 07:09:38;;;;;;;15.45;10.75;;;21.30;27.30;;;;;;4936839;29;20060;-62
2024/01/09 07:12:08;;;;;;;17.13;10.15;;;21.30;27.20;;;;;;4935074;29;20063;-62
2024/01/09 07:14:35;;;;;;;22.95;8.98;;;21.30;27.20;;;;;;4939621;29;20055;-61
2024/01/09 07:17:04;;;;;;;18.85;8.40;;;21.30;27.20;;;;;;4939579;29;20063;-61
2024/01/09 07:19:31;;;;;;;21.05;8.27;;;21.30;27.10;;;;;;4928914;29;20055;-61
2024/01/09 07:21:58;;;;;;;14.32;8.20;;;21.30;27.20;;;;;;4941870;29;20062;-59
2024/01/09 07:24:28;;;;;;;13.40;7.57;;;21.30;27.20;;;;;;4932474;29;20079;-61
2024/01/09 07:26:55;;;;;;;27.77;8.00;;;21.30;27.10;;;;;;4930973;29;20059;-61
2024/01/09 07:29:22;;;;;;;24.23;13.52;;;21.20;27.10;;;;;;4935021;29;20629;-61
2024/01/09 07:31:50;;;;;;;37.45;18.60;;;21.20;27.10;;;;;;4930450;29;20048;-61
2024/01/09 07:34:17;;;;;;;38.92;16.00;;;21.20;27.00;;;;;;4931236;29;20059;-61
2024/01/09 07:36:44;;;;;;;28.63;12.20;;;21.20;27.00;;;;;;4929542;29;20060;-62
2024/01/09 07:39:12;;;;;;;17.88;9.18;;;21.10;27.10;;;;;;4925997;29;20047;-62
2024/01/09 07:41:40;;;;;;;33.05;8.45;;;21.10;27.10;;;;;;4931625;29;20078;-57
2024/01/09 07:44:08;;;;;;;19.42;8.88;;;21.10;27.20;;;;;;4930924;29;20412;-63
2024/01/09 07:46:35;;;;;;;13.70;7.80;;;21.00;27.30;;;;;;4932491;29;20066;-63
2024/01/09 07:49:02;;;;;;;14.40;7.13;;;21.00;27.30;;;;;;4933354;29;20059;-62
2024/01/09 07:51:29;;;;;;;13.07;5.85;;;21.00;27.40;;;;;;4931053;29;20059;-62
2024/01/09 07:53:57;;;;;;;19.67;5.97;;;21.00;27.50;;;;;;4929486;29;20055;-62
2024/01/09 07:56:23;;;;;;;14.40;5.97;;;21.00;27.60;;;;;;4930250;29;20060;-64
2024/01/09 07:58:51;;;;;;;20.27;5.43;;;21.00;27.60;;;;;;4929312;29;20067;-62
2024/01/09 08:01:19;;;;;;;19.70;6.32;;;21.00;27.60;;;;;;4931857;29;20052;-61
2024/01/09 08:03:47;;;;;;;11.88;5.70;;;21.00;27.60;;;;;;4923860;29;20052;-64
2024/01/09 08:06:15;;;;;;;73.38;25.08;;;21.10;27.60;;;;;;4927479;29;20055;-64
2024/01/09 08:08:43;;;;;;;30.17;12.07;;;21.10;27.80;;;;;;4924959;29;20059;-64
2024/01/09 08:11:11;;;;;;;12.80;5.90;;;21.10;28.00;;;;;;4930270;29;20413;-64
2024/01/09 08:13:38;;;;;;;12.82;5.47;;;21.10;28.20;;;;;;4928087;29;20047;-62
2024/01/09 08:16:08;;;;;;;11.82;5.60;;;21.20;28.30;;;;;;4934162;29;20051;-62
2024/01/09 08:18:37;;;;;;;7.30;4.60;;;21.20;28.30;;;;;;4924872;29;20062;-63
2024/01/09 08:21:04;;;;;;;9.52;5.30;;;21.10;28.30;;;;;;4927523;29;20048;-64
2024/01/09 08:23:31;;;;;;;8.93;5.03;;;21.20;28.40;;;;;;4931635;29;20047;-62
2024/01/09 08:25:58;;;;;;;15.57;5.55;;;21.10;28.30;;;;;;4928802;29;20295;-62
2024/01/09 08:28:25;;;;;;;20.98;5.40;;;21.20;28.30;;;;;;4929032;29;20067;-64
2024/01/09 08:30:53;;;;;;;22.13;5.55;;;21.10;28.20;;;;;;4931643;29;20055;-64
2024/01/09 08:33:22;;;;;;;9.02;4.40;;;21.10;28.10;;;;;;4926655;29;20055;-64
2024/01/09 08:35:50;;;;;;;8.75;4.28;;;21.00;27.80;;;;;;4930682;29;20646;-64
2024/01/09 08:38:18;;;;;;;12.82;4.15;;;21.00;27.70;;;;;;4932031;29;20051;-63
2024/01/09 08:40:45;;;;;;;12.40;3.90;;;21.00;27.70;;;;;;4931389;29;20058;-64
2024/01/09 08:43:13;;;;;;;14.88;4.10;;;21.00;27.90;;;;;;4929961;29;20059;-63
2024/01/09 08:45:40;;;;;;;8.90;3.88;;;21.00;27.70;;;;;;4930409;29;20493;-62
2024/01/09 08:48:08;;;;;;;13.13;3.58;;;20.90;27.70;;;;;;4935239;29;20055;-65
2024/01/09 08:50:37;;;;;;;13.75;3.63;;;20.90;27.80;;;;;;4939449;29;20051;-65
2024/01/09 08:53:04;;;;;;;13.13;3.80;;;20.90;27.80;;;;;;4932774;29;20067;-64
2024/01/09 08:55:31;;;;;;;11.48;3.17;;;20.80;27.80;;;;;;4924822;29;20052;-64
2024/01/09 08:57:59;;;;;;;24.52;8.02;;;20.80;27.90;;;;;;4934533;29;20059;-67
2024/01/09 09:00:26;;;;;;;47.58;26.35;;;20.80;27.70;;;;;;4931789;29;20052;-65
2024/01/09 09:02:53;;;;;;;57.45;25.17;;;20.80;27.40;;;;;;4934725;29;20524;-63
2024/01/09 09:05:20;;;;;;;29.45;14.57;;;20.80;27.40;;;;;;4932893;29;20055;-63
2024/01/09 09:07:50;;;;;;;22.35;11.73;;;20.80;27.50;;;;;;4931133;29;20062;-64
2024/01/09 09:10:18;;;;;;;18.48;9.48;;;20.90;27.50;;;;;;4921580;29;20067;-64
2024/01/09 09:12:45;;;;;;;12.82;8.20;;;20.90;27.60;;;;;;4930638;28;20059;-62
2024/01/09 09:15:12;;;;;;;14.40;7.75;;;20.90;27.60;;;;;;4942627;29;20475;-62
2024/01/09 09:17:39;;;;;;;13.77;7.00;;;21.00;27.70;;;;;;4937269;29;20058;-60
2024/01/09 09:20:07;;;;;;;15.68;6.95;;;21.00;27.90;;;;;;4937826;29;20055;-62
2024/01/09 09:22:35;;;;;;;11.23;6.05;;;21.00;27.80;;;;;;4942706;29;20055;-62
2024/01/09 09:25:04;;;;;;;11.63;6.30;;;21.00;27.80;;;;;;4935391;29;20393;-62
2024/01/09 09:27:32;;;;;;;15.07;5.57;;;21.10;27.80;;;;;;4938749;29;20066;-64
2024/01/09 09:29:59;;;;;;;8.15;5.63;;;21.10;27.90;;;;;;4932202;29;20055;-63
2024/01/09 09:32:26;;;;;;;21.63;5.82;;;21.20;27.80;;;;;;4933108;29;20059;-62
2024/01/09 09:34:53;;;;;;;15.63;6.07;;;21.20;27.40;;;;;;4934693;29;20116;-63
2024/01/09 09:37:21;;;;;;;10.98;4.85;;;21.30;27.40;;;;;;4929644;29;20052;-64
2024/01/09 09:39:49;;;;;;;9.60;4.32;;;21.30;27.50;;;;;;4932014;29;20056;-63
2024/01/09 09:42:20;;;;;;;9.75;4.60;;;21.30;27.60;;;;;;4929698;29;20408;-62
2024/01/09 09:44:52;;;;;;;6.70;4.00;;;21.40;27.50;;;;;;4943282;29;20051;-61
2024/01/09 09:47:21;;;;;;;6.70;4.05;;;21.40;27.40;;;;;;4930134;29;20531;-61
2024/01/09 09:49:50;;;;;;;11.68;4.15;;;21.40;27.40;;;;;;4939225;29;20052;-61
2024/01/09 09:52:19;;;;;;;4.90;3.42;;;21.40;27.40;;;;;;4932617;29;20305;-61
2024/01/09 09:54:47;;;;;;;6.53;3.80;;;21.40;27.30;;;;;;4935845;29;20054;-61
2024/01/09 09:57:19;;;;;;;5.38;3.63;;;21.40;27.30;;;;;;4937146;29;20056;-61
2024/01/09 10:06:42;;;;;;;6.55;3.75;;;21.50;27.10;;;;;;4919865;29;20116;-61
2024/01/09 10:09:12;;;;;;;4.95;3.75;;;21.50;27.10;;;;;;4935920;29;20413;-62
2024/01/09 10:11:40;;;;;;;6.35;3.47;;;21.50;27.10;;;;;;4942990;29;20066;-61
2024/01/09 10:14:10;;;;;;;5.63;4.15;;;21.50;27.10;;;;;;4935705;29;20062;-62
2024/01/09 10:16:49;;;;;;;4.70;3.35;;;21.50;27.00;;;;;;4927881;29;20064;-61
2024/01/09 10:19:17;;;;;;;9.55;4.10;;;21.50;27.00;;;;;;4935476;29;20051;-63
2024/01/09 10:21:44;;;;;;;5.65;3.78;;;21.50;27.00;;;;;;4934806;29;20059;-63
2024/01/09 10:24:12;;;;;;;7.00;3.95;;;21.40;26.80;;;;;;4935315;29;20051;-64
2024/01/09 10:26:40;;;;;;;5.93;4.13;;;21.40;26.80;;;;;;4938273;29;20047;-63
2024/01/09 10:29:10;;;;;;;8.52;3.72;;;21.40;26.80;;;;;;4929469;29;20052;-63
2024/01/09 10:31:38;;;;;;;5.95;3.88;;;21.40;26.80;;;;;;4932330;29;20055;-63
2024/01/09 10:34:06;;;;;;;5.20;3.33;;;21.30;26.80;;;;;;4930558;29;20054;-64
2024/01/09 10:36:33;;;;;;;5.13;3.40;;;21.30;26.90;;;;;;4932998;29;20059;-64
2024/01/09 10:39:05;;;;;;;6.82;3.60;;;21.30;27.00;;;;;;4938195;29;20058;-63
2024/01/09 10:41:33;;;;;;;7.38;3.70;;;21.30;27.10;;;;;;4928917;29;20062;-63
2024/01/09 10:44:01;;;;;;;7.82;3.80;;;21.30;27.20;;;;;;4929680;29;20056;-65
2024/01/09 10:46:31;;;;;;;6.45;3.72;;;21.30;27.30;;;;;;4929859;29;20425;-64
2024/01/09 10:49:00;;;;;;;6.18;3.50;;;21.30;27.70;;;;;;4936454;29;20050;-66
2024/01/09 10:51:28;;;;;;;6.43;3.20;;;21.30;27.40;;;;;;4931967;29;20521;-63
2024/01/09 10:53:58;;;;;;;5.70;3.42;;;21.40;27.50;;;;;;4935593;29;20052;-68
2024/01/09 10:56:27;;;;;;;5.55;3.50;;;21.40;27.40;;;;;;4929857;29;20289;-63
2024/01/09 10:58:54;;;;;;;4.55;3.05;;;21.50;27.50;;;;;;4945199;29;20059;-65
2024/01/09 11:01:22;;;;;;;5.25;3.55;;;21.40;27.40;;;;;;4935603;29;20051;-65
2024/01/09 11:03:50;;;;;;;4.05;3.33;;;21.50;27.40;;;;;;4935075;29;20070;-65
2024/01/09 11:06:18;;;;;;;5.50;3.53;;;21.50;27.40;;;;;;4931000;29;20051;-66
2024/01/09 11:08:52;;;;;;;6.97;4.47;;;21.50;27.40;;;;;;4939166;29;20059;-65
2024/01/09 11:11:21;;;;;;;13.52;6.75;;;21.50;27.40;;;;;;4933687;29;20051;-65
2024/01/09 11:13:52;;;;;;;13.82;6.50;;;21.50;27.40;;;;;;4934876;29;20067;-66
2024/01/09 11:16:21;;;;;;;14.73;6.32;;;21.50;27.40;;;;;;4936720;29;20350;-65
2024/01/09 11:18:52;;;;;;;10.50;5.68;;;21.40;27.40;;;;;;4930863;29;20416;-66
2024/01/09 11:21:25;;;;;;;10.73;5.35;;;21.50;27.40;;;;;;4928972;29;20497;-66
2024/01/09 11:23:54;;;;;;;12.05;5.38;;;21.40;27.40;;;;;;4932856;29;20508;-64
2024/01/09 11:26:23;;;;;;;20.35;5.28;;;21.40;27.50;;;;;;4929621;29;20043;-64
2024/01/09 11:28:50;;;;;;;17.20;5.47;;;21.40;27.50;;;;;;4925573;29;20059;-63
2024/01/09 11:31:20;;;;;;;13.55;5.63;;;21.40;27.50;;;;;;4937766;29;20492;-63
2024/01/09 11:33:51;;;;;;;11.75;5.90;;;21.30;27.40;;;;;;4928785;29;20055;-63
2024/01/09 11:36:24;;;;;;;11.00;4.93;;;21.30;27.40;;;;;;4937059;28;20059;-62
2024/01/09 11:38:53;;;;;;;9.18;5.15;;;21.30;27.30;;;;;;4939778;29;20086;-64
2024/01/09 11:41:23;;;;;;;10.65;5.47;;;21.30;27.40;;;;;;4934111;29;20047;-63
2024/01/09 11:44:03;;;;;;;10.73;5.15;;;21.20;27.30;;;;;;4931551;29;20050;-64
2024/01/09 11:46:33;;;;;;;7.75;4.40;;;21.20;27.30;;;;;;4923567;29;20058;-65
2024/01/09 11:49:02;;;;;;;9.13;4.80;;;21.10;27.40;;;;;;4936848;29;20423;-64
2024/01/09 11:51:30;;;;;;;8.52;4.35;;;21.10;27.50;;;;;;4930149;29;20556;-64
2024/01/09 11:53:59;;;;;;;13.20;4.75;;;21.10;27.70;;;;;;4928178;29;20055;-65
2024/01/09 11:56:27;;;;;;;23.25;4.60;;;21.10;27.90;;;;;;4928270;29;20519;-64
2024/01/09 11:58:56;;;;;;;9.00;4.20;;;21.00;28.00;;;;;;4930175;29;20058;-63
2024/01/09 12:01:24;;;;;;;9.25;4.43;;;21.00;28.00;;;;;;4924761;29;20921;-63
2024/01/09 12:03:53;;;;;;;6.82;3.72;;;21.10;28.00;;;;;;4918776;29;20067;-64
2024/01/09 12:06:23;;;;;;;13.27;4.40;;;21.10;28.00;;;;;;4929001;29;20058;-63
2024/01/09 12:08:53;;;;;;;8.77;4.60;;;21.20;28.00;;;;;;4924171;29;20067;-64
2024/01/09 12:11:20;;;;;;;7.82;4.10;;;21.20;28.00;;;;;;4927845;29;20379;-63
2024/01/09 12:13:48;;;;;;;9.85;4.00;;;21.20;28.00;;;;;;4927608;29;20067;-64
2024/01/09 12:16:17;;;;;;;9.48;3.95;;;21.30;28.00;;;;;;4925757;29;20063;-63
2024/01/09 12:18:49;;;;;;;7.78;3.67;;;21.30;27.90;;;;;;4927105;29;20512;-64
2024/01/09 12:21:17;;;;;;;5.18;3.38;;;21.40;28.00;;;;;;4931568;29;20060;-64
2024/01/09 12:23:46;;;;;;;7.32;3.17;;;21.40;28.00;;;;;;4922923;29;20052;-63
2024/01/09 12:26:15;;;;;;;7.18;3.25;;;21.50;28.00;;;;;;4926886;29;20051;-63
2024/01/09 12:28:43;;;;;;;7.00;3.50;;;21.50;27.90;;;;;;4936109;29;20504;-64
2024/01/09 12:31:10;;;;;;;5.97;2.63;;;21.50;27.90;;;;;;4931313;29;20067;-64
2024/01/09 12:33:38;;;;;;;5.57;2.80;;;21.60;27.90;;;;;;4929787;29;20063;-64
2024/01/09 12:36:06;;;;;;;7.95;2.90;;;21.60;27.90;;;;;;4932349;29;20059;-64
2024/01/09 12:38:34;;;;;;;6.05;2.70;;;21.70;27.90;;;;;;4930008;29;20062;-64
2024/01/09 12:41:05;;;;;;;4.00;2.70;;;21.70;27.80;;;;;;4929082;29;20058;-64
2024/01/09 12:43:33;;;;;;;3.90;2.60;;;21.70;27.70;;;;;;4928312;29;20055;-64
2024/01/09 12:46:01;;;;;;;4.82;2.75;;;21.70;27.70;;;;;;4933271;29;20055;-65
2024/01/09 12:48:27;;;;;;;4.57;2.65;;;21.70;27.60;;;;;;4941233;29;20058;-64
2024/01/09 12:50:59;;;;;;;8.00;3.15;;;21.70;27.60;;;;;;4934340;29;20062;-64